METAR Data
IDs: Format: Raw Decoded Include TAF

Data at: 2046 UTC 02 Aug 2021

ENTO 022020Z 28004KT CAVOK 14/10 Q1007 NOSIG